createdAt,value
2022-08-28T00:01:37.791Z,9.25
2022-08-28T00:04:07.794Z,9.70
2022-08-28T00:06:39.351Z,8.95
2022-08-28T00:09:08.177Z,9.35
2022-08-28T00:11:43.844Z,8.63
2022-08-28T00:14:11.777Z,8.98
2022-08-28T00:16:39.529Z,9.25
2022-08-28T00:19:11.405Z,9.13
2022-08-28T00:21:44.066Z,9.70
2022-08-28T00:24:16.822Z,10.82
2022-08-28T00:27:08.056Z,9.93
2022-08-28T00:29:38.674Z,8.90
2022-08-28T00:32:11.669Z,8.25
2022-08-28T00:34:40.994Z,8.82
2022-08-28T00:37:11.190Z,8.77
2022-08-28T00:39:43.791Z,8.85
2022-08-28T00:42:16.149Z,8.52
2022-08-28T00:44:48.613Z,9.27
2022-08-28T00:47:18.754Z,9.15
2022-08-28T00:49:57.565Z,8.07
2022-08-28T00:52:32.057Z,8.27
2022-08-28T00:55:05.582Z,8.40
2022-08-28T00:58:02.329Z,8.63
2022-08-28T01:00:35.460Z,11.10
2022-08-28T01:03:14.925Z,9.55
2022-08-28T01:05:48.149Z,8.73
2022-08-28T01:08:19.305Z,10.25
2022-08-28T01:10:54.920Z,10.25
2022-08-28T01:13:28.977Z,11.52
2022-08-28T01:18:43.428Z,12.20
2022-08-28T01:21:40.285Z,11.90
2022-08-28T01:24:16.047Z,10.77
2022-08-28T01:26:46.279Z,9.65
2022-08-28T01:29:17.400Z,10.57
2022-08-28T01:31:49.791Z,11.52
2022-08-28T01:34:21.107Z,12.85
2022-08-28T01:36:52.478Z,10.30
2022-08-28T01:39:28.737Z,12.10
2022-08-28T01:42:12.809Z,10.07
2022-08-28T01:44:42.449Z,11.95
2022-08-28T01:47:14.018Z,11.77
2022-08-28T01:49:46.810Z,12.00
2022-08-28T01:52:18.350Z,9.40
2022-08-28T01:55:00.077Z,9.32
2022-08-28T01:57:29.965Z,9.38
2022-08-28T01:59:59.736Z,8.50
2022-08-28T02:02:28.777Z,10.77
2022-08-28T02:04:59.227Z,9.45
2022-08-28T02:07:27.496Z,11.57
2022-08-28T02:10:00.189Z,10.80
2022-08-28T02:12:34.314Z,11.30
2022-08-28T02:15:04.831Z,9.48
2022-08-28T02:17:35.076Z,10.10
2022-08-28T02:20:09.342Z,11.23
2022-08-28T02:22:37.560Z,10.93
2022-08-28T02:25:09.344Z,10.13
2022-08-28T02:27:39.431Z,10.45
2022-08-28T02:30:12.066Z,11.52
2022-08-28T02:32:41.869Z,11.82
2022-08-28T02:35:18.340Z,12.07
2022-08-28T02:37:48.230Z,11.82
2022-08-28T02:40:23.251Z,13.32
2022-08-28T02:42:53.034Z,12.98
2022-08-28T02:45:22.719Z,12.45
2022-08-28T02:47:56.978Z,12.93
2022-08-28T02:50:26.537Z,13.25
2022-08-28T02:52:58.963Z,12.52
2022-08-28T02:55:31.342Z,11.88
2022-08-28T02:58:10.277Z,13.18
2022-08-28T03:00:49.598Z,11.90
2022-08-28T03:03:21.117Z,12.52
2022-08-28T03:05:52.116Z,11.63
2022-08-28T03:08:22.092Z,11.73
2022-08-28T03:10:59.427Z,11.68
2022-08-28T03:13:33.198Z,12.00
2022-08-28T03:16:01.960Z,11.70
2022-08-28T03:18:33.331Z,10.70
2022-08-28T03:21:04.277Z,12.00
2022-08-28T03:23:34.797Z,10.23
2022-08-28T03:26:16.816Z,11.73
2022-08-28T03:28:56.274Z,10.63
2022-08-28T03:31:36.252Z,11.70
2022-08-28T03:34:09.337Z,11.95
2022-08-28T03:36:40.314Z,11.77
2022-08-28T03:39:08.960Z,11.13
2022-08-28T03:41:39.081Z,12.50
2022-08-28T03:44:07.266Z,11.32
2022-08-28T03:46:37.516Z,12.55
2022-08-28T03:49:08.357Z,10.88
2022-08-28T03:51:38.766Z,9.52
2022-08-28T03:54:09.333Z,11.95
2022-08-28T03:56:39.316Z,11.57
2022-08-28T03:59:09.540Z,10.80
2022-08-28T04:01:39.866Z,10.65
2022-08-28T04:04:09.011Z,11.50
2022-08-28T04:06:41.073Z,11.02
2022-08-28T04:09:10.818Z,10.93
2022-08-28T04:11:52.711Z,10.80
2022-08-28T04:14:20.794Z,11.15
2022-08-28T04:16:52.190Z,10.88
2022-08-28T04:19:21.870Z,10.88
2022-08-28T04:21:54.212Z,11.25
2022-08-28T04:24:22.752Z,10.38
2022-08-28T04:26:55.238Z,11.32
2022-08-28T04:29:25.002Z,12.00
2022-08-28T04:31:55.920Z,12.50
2022-08-28T04:34:25.863Z,11.55
2022-08-28T04:36:57.370Z,11.55
2022-08-28T04:39:29.553Z,12.07
2022-08-28T04:42:00.234Z,12.45
2022-08-28T04:44:30.657Z,12.35
2022-08-28T04:47:04.906Z,12.25
2022-08-28T04:49:43.569Z,13.60
2022-08-28T04:52:14.273Z,12.90
2022-08-28T04:54:46.276Z,13.05
2022-08-28T04:57:22.013Z,13.40
2022-08-28T04:59:53.239Z,13.18
2022-08-28T05:02:25.043Z,14.88
2022-08-28T05:04:55.841Z,13.15
2022-08-28T05:07:23.177Z,14.60
2022-08-28T05:09:57.658Z,13.23
2022-08-28T05:12:27.008Z,14.85
2022-08-28T05:14:56.683Z,14.35
2022-08-28T05:17:26.763Z,14.57
2022-08-28T05:22:31.144Z,14.30
2022-08-28T05:25:04.169Z,14.15
2022-08-28T05:27:41.009Z,13.48
2022-08-28T05:30:12.852Z,15.52
2022-08-28T05:32:46.163Z,14.95
2022-08-28T05:35:20.925Z,14.15
2022-08-28T05:37:50.963Z,15.70
2022-08-28T05:40:26.015Z,15.05
2022-08-28T05:45:35.854Z,14.45
2022-08-28T05:48:07.618Z,14.00
2022-08-28T05:50:47.384Z,14.50
2022-08-28T05:53:21.413Z,14.50
2022-08-28T05:55:51.954Z,15.07
2022-08-28T05:58:31.932Z,14.60
2022-08-28T06:01:18.152Z,14.63
2022-08-28T06:03:58.909Z,14.77
2022-08-28T06:06:31.158Z,14.48
2022-08-28T06:09:04.718Z,14.90
2022-08-28T06:11:37.431Z,14.60
2022-08-28T06:14:15.146Z,14.38
2022-08-28T06:16:52.938Z,15.60
2022-08-28T06:19:23.502Z,14.25
2022-08-28T06:21:56.765Z,13.90
2022-08-28T06:24:29.165Z,13.90
2022-08-28T06:27:02.598Z,13.90
2022-08-28T06:32:14.352Z,14.05
2022-08-28T06:34:46.717Z,13.52
2022-08-28T06:37:16.428Z,14.45
2022-08-28T06:39:46.384Z,13.73
2022-08-28T06:42:18.149Z,13.75
2022-08-28T06:44:47.518Z,12.77
2022-08-28T06:47:17.281Z,14.43
2022-08-28T06:49:48.295Z,14.73
2022-08-28T06:52:19.717Z,14.18
2022-08-28T06:54:55.633Z,14.50
2022-08-28T06:57:27.277Z,13.40
2022-08-28T06:59:59.595Z,13.73
2022-08-28T07:02:30.631Z,12.52
2022-08-28T07:05:03.931Z,13.77
2022-08-28T07:07:34.258Z,13.05
2022-08-28T07:10:07.850Z,13.75
2022-08-28T07:12:37.383Z,12.50
2022-08-28T07:15:11.129Z,13.82
2022-08-28T07:17:43.379Z,12.50
2022-08-28T07:20:19.634Z,11.85
2022-08-28T07:22:59.713Z,12.25
2022-08-28T07:25:32.161Z,12.30
2022-08-28T07:28:03.536Z,11.82
2022-08-28T07:30:38.709Z,11.93
2022-08-28T07:33:10.344Z,10.75
2022-08-28T07:35:46.794Z,10.93
2022-08-28T07:38:18.425Z,11.00
2022-08-28T07:40:49.483Z,10.68
2022-08-28T07:43:37.426Z,10.80
2022-08-28T07:46:09.107Z,11.73
2022-08-28T07:53:55.779Z,11.05
2022-08-28T07:56:33.404Z,10.98
2022-08-28T07:59:06.410Z,10.93
2022-08-28T08:01:43.587Z,10.80
2022-08-28T08:04:18.480Z,10.50
2022-08-28T08:06:57.758Z,10.20
2022-08-28T08:09:34.418Z,10.35
2022-08-28T08:12:11.812Z,10.45
2022-08-28T08:14:44.794Z,11.50
2022-08-28T08:17:15.980Z,11.27
2022-08-28T08:19:49.607Z,10.73
2022-08-28T08:22:20.536Z,10.85
2022-08-28T08:24:53.517Z,10.10
2022-08-28T08:27:24.483Z,10.70
2022-08-28T08:29:55.541Z,10.65
2022-08-28T08:32:25.317Z,10.90
2022-08-28T08:35:00.276Z,10.52
2022-08-28T08:37:30.849Z,9.98
2022-08-28T08:40:00.182Z,11.20
2022-08-28T08:45:23.418Z,11.85
2022-08-28T08:47:55.973Z,10.35
2022-08-28T08:50:31.670Z,10.73
2022-08-28T08:53:48.828Z,11.63
2022-08-28T08:56:24.302Z,10.95
2022-08-28T08:59:13.001Z,10.73
2022-08-28T09:02:31.470Z,10.57
2022-08-28T09:05:06.421Z,9.25
2022-08-28T09:07:44.439Z,10.32
2022-08-28T09:10:18.774Z,8.75
2022-08-28T09:13:24.118Z,10.55
2022-08-28T09:18:33.415Z,9.98
2022-08-28T09:21:05.226Z,9.15
2022-08-28T09:23:36.360Z,9.98
2022-08-28T09:26:13.780Z,9.73
2022-08-28T09:29:00.516Z,10.00
2022-08-28T09:31:38.996Z,9.45
2022-08-28T09:34:39.120Z,9.18
2022-08-28T09:37:27.026Z,9.80
2022-08-28T09:40:57.034Z,9.57
2022-08-28T09:43:29.620Z,9.32
2022-08-28T09:46:47.766Z,8.38
2022-08-28T09:49:35.086Z,8.50
2022-08-28T09:52:27.029Z,9.30
2022-08-28T09:54:56.025Z,9.85
2022-08-28T09:57:27.405Z,8.80
2022-08-28T09:59:57.582Z,9.80
2022-08-28T10:03:10.942Z,8.63
2022-08-28T10:05:52.244Z,8.80
2022-08-28T10:08:38.158Z,9.02
2022-08-28T10:11:26.104Z,8.93
2022-08-28T10:14:45.386Z,8.43
2022-08-28T10:17:24.454Z,9.18
2022-08-28T10:20:21.417Z,8.50
2022-08-28T10:23:36.646Z,8.52
2022-08-28T10:26:38.000Z,8.93
2022-08-28T10:29:31.357Z,8.60
2022-08-28T10:32:44.584Z,9.43
2022-08-28T10:35:42.102Z,9.15
2022-08-28T10:38:34.864Z,8.93
2022-08-28T10:41:11.431Z,8.55
2022-08-28T10:43:56.994Z,8.07
2022-08-28T10:46:44.657Z,8.95
2022-08-28T10:49:39.206Z,8.68
2022-08-28T10:52:16.085Z,7.75
2022-08-28T10:54:59.344Z,9.40
2022-08-28T10:57:44.808Z,8.40
2022-08-28T11:00:33.249Z,8.65
2022-08-28T11:03:41.036Z,7.85
2022-08-28T11:06:35.662Z,8.30
2022-08-28T11:09:27.035Z,7.90
2022-08-28T11:12:30.103Z,9.32
2022-08-28T11:15:01.218Z,8.10
2022-08-28T11:17:48.404Z,7.80
2022-08-28T11:20:27.672Z,7.57
2022-08-28T11:23:17.191Z,8.18
2022-08-28T11:25:57.853Z,7.93
2022-08-28T11:28:46.770Z,8.25
2022-08-28T11:31:18.393Z,8.93
2022-08-28T11:34:01.544Z,8.20
2022-08-28T11:36:32.918Z,7.72
2022-08-28T11:39:33.029Z,7.03
2022-08-28T11:42:38.550Z,7.68
2022-08-28T11:45:08.580Z,8.60
2022-08-28T11:47:49.452Z,8.65
2022-08-28T11:50:27.609Z,7.93
2022-08-28T11:53:28.815Z,9.57
2022-08-28T11:56:36.514Z,8.13
2022-08-28T12:00:00.143Z,6.85
2022-08-28T12:02:56.246Z,8.43
2022-08-28T12:05:45.517Z,8.18
2022-08-28T12:08:57.994Z,7.93
2022-08-28T12:11:50.731Z,7.30
2022-08-28T12:14:47.461Z,12.23
2022-08-28T12:17:37.916Z,8.13
2022-08-28T12:20:51.370Z,8.70
2022-08-28T12:23:50.478Z,7.15
2022-08-28T12:26:54.492Z,15.15
2022-08-28T12:29:48.004Z,6.97
2022-08-28T12:32:49.949Z,6.45
2022-08-28T12:35:30.060Z,6.80
2022-08-28T12:38:20.827Z,10.10
2022-08-28T12:40:59.580Z,6.90
2022-08-28T12:43:46.726Z,6.88
2022-08-28T12:46:34.221Z,7.75
2022-08-28T12:49:06.971Z,7.40
2022-08-28T12:51:42.117Z,6.40
2022-08-28T12:54:18.180Z,7.70
2022-08-28T12:56:47.968Z,6.25
2022-08-28T12:59:40.603Z,6.60
2022-08-28T13:02:29.327Z,6.07
2022-08-28T13:05:15.385Z,6.85
2022-08-28T13:10:44.757Z,8.18
2022-08-28T13:13:37.419Z,6.22
2022-08-28T13:16:10.942Z,7.10
2022-08-28T13:19:13.355Z,6.10
2022-08-28T13:22:06.205Z,5.85
2022-08-28T13:24:42.765Z,6.13
2022-08-28T13:27:25.523Z,6.13
2022-08-28T13:30:38.144Z,5.90
2022-08-28T13:33:20.909Z,5.68
2022-08-28T13:36:03.633Z,5.55
2022-08-28T13:38:38.878Z,5.38
2022-08-28T13:41:11.135Z,5.38
2022-08-28T13:43:47.417Z,5.55
2022-08-28T13:46:20.520Z,5.57
2022-08-28T13:48:52.713Z,5.97
2022-08-28T13:51:25.905Z,5.50
2022-08-28T13:54:00.730Z,5.18
2022-08-28T13:56:34.834Z,6.22
2022-08-28T13:59:08.852Z,5.10
2022-08-28T14:01:59.216Z,5.90
2022-08-28T14:04:31.079Z,6.90
2022-08-28T14:07:04.949Z,6.00
2022-08-28T14:09:38.022Z,4.78
2022-08-28T14:12:12.937Z,5.47
2022-08-28T14:14:43.793Z,5.53
2022-08-28T14:17:15.394Z,5.15
2022-08-28T14:19:44.688Z,10.30
2022-08-28T14:22:14.317Z,5.32
2022-08-28T14:24:43.549Z,4.97
2022-08-28T14:27:16.542Z,4.97
2022-08-28T14:29:48.327Z,4.80
2022-08-28T14:32:18.658Z,4.75
2022-08-28T14:34:56.031Z,5.13
2022-08-28T14:37:26.646Z,5.38
2022-08-28T14:40:01.842Z,5.30
2022-08-28T14:42:34.089Z,5.07
2022-08-28T14:45:03.103Z,5.75
2022-08-28T14:47:34.917Z,5.60
2022-08-28T14:50:08.068Z,5.40
2022-08-28T14:52:39.308Z,5.53
2022-08-28T14:55:12.172Z,6.90
2022-08-28T14:57:43.178Z,6.10
2022-08-28T15:00:23.036Z,8.15
2022-08-28T15:02:59.609Z,6.35
2022-08-28T15:05:32.330Z,5.60
2022-08-28T15:08:05.094Z,5.45
2022-08-28T15:10:36.738Z,5.43
2022-08-28T15:13:09.460Z,5.70
2022-08-28T15:15:44.159Z,5.05
2022-08-28T15:18:16.000Z,5.78
2022-08-28T15:20:48.587Z,5.43
2022-08-28T15:25:52.680Z,5.35
2022-08-28T15:28:23.172Z,6.00
2022-08-28T15:30:50.919Z,5.15
2022-08-28T15:33:22.032Z,5.07
2022-08-28T15:35:50.213Z,5.70
2022-08-28T15:38:24.862Z,5.18
2022-08-28T15:43:47.806Z,6.43
2022-08-28T15:48:49.412Z,5.78
2022-08-28T15:51:25.563Z,5.93
2022-08-28T15:53:57.150Z,5.40
2022-08-28T15:56:29.852Z,5.88
2022-08-28T15:59:05.335Z,7.40
2022-08-28T16:04:09.588Z,6.68
2022-08-28T16:06:49.578Z,7.18
2022-08-28T16:09:34.068Z,7.60
2022-08-28T16:12:01.850Z,6.22
2022-08-28T16:14:32.989Z,7.47
2022-08-28T16:17:10.645Z,7.78
2022-08-28T16:19:44.660Z,9.30
2022-08-28T16:22:20.883Z,9.50
2022-08-28T16:24:53.617Z,8.75
2022-08-28T16:29:55.007Z,12.35
2022-08-28T16:32:27.561Z,9.88
2022-08-28T16:34:56.956Z,9.00
2022-08-28T16:37:37.626Z,8.73
2022-08-28T16:40:14.477Z,10.57
2022-08-28T16:42:51.592Z,10.95
2022-08-28T16:45:25.631Z,10.70
2022-08-28T16:47:57.090Z,11.98
2022-08-28T16:50:38.972Z,15.30
2022-08-28T16:53:08.989Z,14.48
2022-08-28T16:55:40.748Z,17.77
2022-08-28T16:58:16.730Z,19.42
2022-08-28T17:00:52.731Z,19.70
2022-08-28T17:03:26.518Z,19.33
2022-08-28T17:06:00.229Z,16.48
2022-08-28T17:08:30.724Z,11.77
2022-08-28T17:11:04.222Z,17.80
2022-08-28T17:13:39.420Z,15.95
2022-08-28T17:16:13.506Z,16.00
2022-08-28T17:18:48.283Z,16.35
2022-08-28T17:21:42.949Z,17.60
2022-08-28T17:24:15.175Z,17.88
2022-08-28T17:26:46.392Z,17.58
2022-08-28T17:29:19.385Z,17.13
2022-08-28T17:34:29.517Z,14.63
2022-08-28T17:36:58.342Z,10.35
2022-08-28T17:39:30.450Z,11.52
2022-08-28T17:42:01.268Z,11.57
2022-08-28T17:47:15.265Z,11.68
2022-08-28T17:49:45.884Z,11.63
2022-08-28T17:52:16.744Z,11.27
2022-08-28T17:54:52.503Z,12.38
2022-08-28T17:57:22.034Z,14.38
2022-08-28T17:59:52.986Z,12.90
2022-08-28T18:02:29.019Z,12.55
2022-08-28T18:04:58.219Z,11.38
2022-08-28T18:07:34.066Z,10.43
2022-08-28T18:10:04.225Z,11.57
2022-08-28T18:12:34.337Z,15.05
2022-08-28T18:17:58.577Z,11.73
2022-08-28T18:20:31.870Z,11.63
2022-08-28T18:23:04.255Z,10.90
2022-08-28T18:25:52.239Z,10.95
2022-08-28T18:28:36.966Z,9.55
2022-08-28T18:31:09.671Z,9.90
2022-08-28T18:33:41.144Z,9.85
2022-08-28T18:36:13.168Z,10.75
2022-08-28T18:38:44.761Z,11.02
2022-08-28T18:41:18.003Z,9.23
2022-08-28T18:43:51.115Z,9.30
2022-08-28T18:46:22.414Z,10.10
2022-08-28T18:48:50.531Z,9.43
2022-08-28T18:51:24.876Z,8.07
2022-08-28T18:53:56.370Z,9.15
2022-08-28T18:56:26.988Z,9.30
2022-08-28T18:59:04.065Z,14.15
2022-08-28T19:01:35.952Z,11.93
2022-08-28T19:04:06.209Z,12.52
2022-08-28T19:06:56.339Z,10.65
2022-08-28T19:09:32.597Z,9.75
2022-08-28T19:12:27.565Z,9.82
2022-08-28T19:15:01.809Z,9.98
2022-08-28T19:17:38.272Z,8.82
2022-08-28T19:20:14.297Z,10.77
2022-08-28T19:22:46.010Z,9.38
2022-08-28T19:25:27.883Z,9.18
2022-08-28T19:28:03.747Z,10.25
2022-08-28T19:30:38.214Z,8.50
2022-08-28T19:33:08.201Z,8.77
2022-08-28T19:35:42.062Z,9.38
2022-08-28T19:38:14.805Z,9.90
2022-08-28T19:40:46.181Z,10.65
2022-08-28T19:43:21.217Z,11.15
2022-08-28T19:45:49.926Z,10.10
2022-08-28T19:48:21.120Z,12.55
2022-08-28T19:51:00.123Z,9.20
2022-08-28T19:53:34.504Z,9.30
2022-08-28T19:56:09.790Z,9.95
2022-08-28T19:58:44.827Z,8.05
2022-08-28T20:01:23.012Z,8.95
2022-08-28T20:03:58.008Z,8.48
2022-08-28T20:06:32.320Z,9.90
2022-08-28T20:09:06.531Z,8.13
2022-08-28T20:11:45.207Z,8.88
2022-08-28T20:14:26.037Z,8.67
2022-08-28T20:16:56.504Z,10.60
2022-08-28T20:19:28.042Z,8.43
2022-08-28T20:21:57.239Z,8.02
2022-08-28T20:24:27.664Z,8.38
2022-08-28T20:27:00.651Z,10.18
2022-08-28T20:29:43.996Z,11.68
2022-08-28T20:32:16.781Z,12.07
2022-08-28T20:34:50.819Z,10.70
2022-08-28T20:37:21.528Z,10.73
2022-08-28T20:40:09.722Z,10.52
2022-08-28T20:42:44.330Z,10.77
2022-08-28T20:45:17.469Z,11.40
2022-08-28T20:47:50.415Z,11.68
2022-08-28T20:50:19.360Z,10.80
2022-08-28T20:52:52.909Z,10.93
2022-08-28T20:55:26.984Z,10.93
2022-08-28T20:58:00.576Z,10.02
2022-08-28T21:00:31.395Z,10.17
2022-08-28T21:03:02.425Z,11.00
2022-08-28T21:05:34.194Z,11.52
2022-08-28T21:08:16.316Z,9.65
2022-08-28T21:10:51.458Z,10.75
2022-08-28T21:13:21.870Z,12.27
2022-08-28T21:15:51.481Z,11.55
2022-08-28T21:18:23.609Z,12.77
2022-08-28T21:20:54.667Z,12.20
2022-08-28T21:23:25.228Z,11.52
2022-08-28T21:25:56.555Z,12.38
2022-08-28T21:28:31.080Z,11.48
2022-08-28T21:31:02.485Z,11.52
2022-08-28T21:33:35.784Z,11.90
2022-08-28T21:38:52.485Z,11.80
2022-08-28T21:41:24.509Z,11.63
2022-08-28T21:43:59.616Z,15.52
2022-08-28T21:46:30.355Z,12.80
2022-08-28T21:49:05.035Z,13.13
2022-08-28T21:51:35.612Z,13.15
2022-08-28T21:54:08.556Z,13.50
2022-08-28T21:56:38.123Z,11.43
2022-08-28T21:59:10.341Z,12.52
2022-08-28T22:01:40.679Z,11.07
2022-08-28T22:04:11.086Z,9.45
2022-08-28T22:06:42.103Z,10.13
2022-08-28T22:09:12.221Z,9.73
2022-08-28T22:11:43.090Z,10.45
2022-08-28T22:14:14.669Z,9.90
2022-08-28T22:16:47.504Z,10.27
2022-08-28T22:19:19.788Z,8.85
2022-08-28T22:22:09.568Z,8.88
2022-08-28T22:24:41.437Z,8.75
2022-08-28T22:27:13.877Z,8.40
2022-08-28T22:29:43.598Z,10.10
2022-08-28T22:32:11.452Z,9.80
2022-08-28T22:34:45.659Z,10.45
2022-08-28T22:37:16.425Z,9.80
2022-08-28T22:39:46.197Z,10.68
2022-08-28T22:42:16.082Z,9.25
2022-08-28T22:44:56.700Z,7.80
2022-08-28T22:47:28.426Z,8.20
2022-08-28T22:50:02.619Z,9.73
2022-08-28T22:52:34.973Z,10.52
2022-08-28T22:55:20.045Z,9.75
2022-08-28T22:57:48.508Z,10.35
2022-08-28T23:00:28.650Z,9.15
2022-08-28T23:03:01.520Z,8.30
2022-08-28T23:05:35.218Z,9.20
2022-08-28T23:08:07.838Z,7.50
2022-08-28T23:10:57.899Z,6.00
2022-08-28T23:16:10.858Z,5.80
2022-08-28T23:19:07.296Z,5.90
2022-08-28T23:21:45.224Z,5.65
2022-08-28T23:24:17.544Z,5.60
2022-08-28T23:26:51.697Z,6.03
2022-08-28T23:29:24.169Z,5.45
2022-08-28T23:31:55.387Z,5.22
2022-08-28T23:34:25.453Z,5.75
2022-08-28T23:36:54.531Z,6.03
2022-08-28T23:39:32.836Z,6.00
2022-08-28T23:42:06.654Z,6.07
2022-08-28T23:44:39.472Z,6.55
2022-08-28T23:47:12.166Z,6.53
2022-08-28T23:49:43.809Z,6.78
2022-08-28T23:52:15.002Z,6.30
2022-08-28T23:54:43.157Z,5.70
2022-08-28T23:57:20.965Z,6.70
2022-08-28T23:59:51.648Z,7.05
